sensor_id;sensor_type;location;lat;lon;timestamp;temperature;humidity
27779;DHT22;30234;48.090;11.464;2023-03-23T00:02:02;8.80;99.90
27779;DHT22;30234;48.090;11.464;2023-03-23T00:06:03;8.80;99.90
27779;DHT22;30234;48.090;11.464;2023-03-23T00:10:08;8.70;99.90
27779;DHT22;30234;48.090;11.464;2023-03-23T00:14:10;8.80;99.90
27779;DHT22;30234;48.090;11.464;2023-03-23T00:18:15;8.80;99.90
27779;DHT22;30234;48.090;11.464;2023-03-23T00:22:22;8.80;99.90
27779;DHT22;30234;48.090;11.464;2023-03-23T00:26:25;8.80;99.90
27779;DHT22;30234;48.090;11.464;2023-03-23T00:30:28;8.80;99.90
27779;DHT22;30234;48.090;11.464;2023-03-23T00:34:30;8.80;99.90
27779;DHT22;30234;48.090;11.464;2023-03-23T00:38:32;8.80;99.90
27779;DHT22;30234;48.090;11.464;2023-03-23T00:42:33;8.80;99.90
27779;DHT22;30234;48.090;11.464;2023-03-23T00:46:37;8.80;99.90
27779;DHT22;30234;48.090;11.464;2023-03-23T00:50:45;8.90;99.90
27779;DHT22;30234;48.090;11.464;2023-03-23T00:54:46;8.90;99.90
27779;DHT22;30234;48.090;11.464;2023-03-23T00:58:47;8.90;99.90
27779;DHT22;30234;48.090;11.464;2023-03-23T01:02:48;9.10;99.90
27779;DHT22;30234;48.090;11.464;2023-03-23T01:06:51;9.10;99.90
27779;DHT22;30234;48.090;11.464;2023-03-23T01:11:02;9.00;99.90
27779;DHT22;30234;48.090;11.464;2023-03-23T01:15:05;9.10;99.90
27779;DHT22;30234;48.090;11.464;2023-03-23T01:19:06;9.20;99.90
27779;DHT22;30234;48.090;11.464;2023-03-23T01:23:07;9.20;99.90
27779;DHT22;30234;48.090;11.464;2023-03-23T01:27:09;9.70;99.90
27779;DHT22;30234;48.090;11.464;2023-03-23T01:31:15;9.10;99.90
27779;DHT22;30234;48.090;11.464;2023-03-23T01:35:18;9.10;99.90
27779;DHT22;30234;48.090;11.464;2023-03-23T01:39:19;9.10;99.90
27779;DHT22;30234;48.090;11.464;2023-03-23T01:43:19;9.10;99.90
27779;DHT22;30234;48.090;11.464;2023-03-23T01:47:21;9.10;99.90
27779;DHT22;30234;48.090;11.464;2023-03-23T01:51:27;9.10;99.90
27779;DHT22;30234;48.090;11.464;2023-03-23T01:55:28;9.10;99.90
27779;DHT22;30234;48.090;11.464;2023-03-23T01:59:32;9.00;99.90
27779;DHT22;30234;48.090;11.464;2023-03-23T02:03:36;8.90;99.90
27779;DHT22;30234;48.090;11.464;2023-03-23T02:07:37;8.70;99.90
27779;DHT22;30234;48.090;11.464;2023-03-23T02:11:38;8.60;99.90
27779;DHT22;30234;48.090;11.464;2023-03-23T02:16:13;8.50;99.90
27779;DHT22;30234;48.090;11.464;2023-03-23T02:34:27;8.50;99.90
27779;DHT22;30234;48.090;11.464;2023-03-23T02:38:32;8.50;99.90
27779;DHT22;30234;48.090;11.464;2023-03-23T02:42:43;8.50;99.90
27779;DHT22;30234;48.090;11.464;2023-03-23T02:46:48;8.60;99.90
27779;DHT22;30234;48.090;11.464;2023-03-23T02:50:51;8.60;99.90
27779;DHT22;30234;48.090;11.464;2023-03-23T02:54:55;8.60;99.90
27779;DHT22;30234;48.090;11.464;2023-03-23T02:58:56;8.50;99.90
27779;DHT22;30234;48.090;11.464;2023-03-23T03:02:57;8.40;99.90
27779;DHT22;30234;48.090;11.464;2023-03-23T03:11:54;7.90;99.90
27779;DHT22;30234;48.090;11.464;2023-03-23T03:16:24;7.90;99.90
27779;DHT22;30234;48.090;11.464;2023-03-23T03:20:35;8.00;99.90
27779;DHT22;30234;48.090;11.464;2023-03-23T03:24:40;8.10;99.90
27779;DHT22;30234;48.090;11.464;2023-03-23T03:28:47;8.20;99.90
27779;DHT22;30234;48.090;11.464;2023-03-23T03:32:51;8.30;99.90
27779;DHT22;30234;48.090;11.464;2023-03-23T03:36:55;8.20;99.90
27779;DHT22;30234;48.090;11.464;2023-03-23T03:40:59;8.20;99.90
27779;DHT22;30234;48.090;11.464;2023-03-23T03:44:59;8.20;99.90
27779;DHT22;30234;48.090;11.464;2023-03-23T03:49:02;8.30;99.90
27779;DHT22;30234;48.090;11.464;2023-03-23T03:53:05;8.20;99.90
27779;DHT22;30234;48.090;11.464;2023-03-23T03:57:06;8.10;99.90
27779;DHT22;30234;48.090;11.464;2023-03-23T04:01:09;8.10;99.90
27779;DHT22;30234;48.090;11.464;2023-03-23T04:05:10;8.10;99.90
27779;DHT22;30234;48.090;11.464;2023-03-23T04:09:12;8.20;99.90
27779;DHT22;30234;48.090;11.464;2023-03-23T04:13:13;8.10;99.90
27779;DHT22;30234;48.090;11.464;2023-03-23T04:17:14;8.10;99.90
27779;DHT22;30234;48.090;11.464;2023-03-23T04:21:17;8.10;99.90
27779;DHT22;30234;48.090;11.464;2023-03-23T04:25:19;8.10;99.90
27779;DHT22;30234;48.090;11.464;2023-03-23T04:29:23;8.20;99.90
27779;DHT22;30234;48.090;11.464;2023-03-23T04:33:25;8.10;99.90
27779;DHT22;30234;48.090;11.464;2023-03-23T04:37:28;8.00;99.90
27779;DHT22;30234;48.090;11.464;2023-03-23T04:41:35;8.00;99.90
27779;DHT22;30234;48.090;11.464;2023-03-23T04:45:40;8.00;99.90
27779;DHT22;30234;48.090;11.464;2023-03-23T04:49:46;8.00;99.90
27779;DHT22;30234;48.090;11.464;2023-03-23T04:53:47;8.10;99.90
27779;DHT22;30234;48.090;11.464;2023-03-23T04:57:48;8.20;99.90
27779;DHT22;30234;48.090;11.464;2023-03-23T05:01:49;8.30;99.90
27779;DHT22;30234;48.090;11.464;2023-03-23T05:05:50;8.40;99.90
27779;DHT22;30234;48.090;11.464;2023-03-23T05:09:53;8.60;99.90
27779;DHT22;30234;48.090;11.464;2023-03-23T05:13:54;8.50;99.90
27779;DHT22;30234;48.090;11.464;2023-03-23T05:17:55;8.50;99.90
27779;DHT22;30234;48.090;11.464;2023-03-23T05:21:59;8.60;99.90
27779;DHT22;30234;48.090;11.464;2023-03-23T05:26:03;8.60;99.90
27779;DHT22;30234;48.090;11.464;2023-03-23T05:30:07;8.60;99.90
27779;DHT22;30234;48.090;11.464;2023-03-23T05:34:08;8.80;99.90
27779;DHT22;30234;48.090;11.464;2023-03-23T05:38:10;8.90;99.90
27779;DHT22;30234;48.090;11.464;2023-03-23T05:42:10;9.10;99.90
27779;DHT22;30234;48.090;11.464;2023-03-23T05:46:11;9.20;99.90
27779;DHT22;30234;48.090;11.464;2023-03-23T05:50:12;9.30;99.90
27779;DHT22;30234;48.090;11.464;2023-03-23T05:54:14;9.30;99.90
27779;DHT22;30234;48.090;11.464;2023-03-23T05:58:15;9.80;99.90
27779;DHT22;30234;48.090;11.464;2023-03-23T06:02:16;9.10;99.90
27779;DHT22;30234;48.090;11.464;2023-03-23T06:06:17;9.40;99.90
27779;DHT22;30234;48.090;11.464;2023-03-23T06:10:18;9.60;99.90
27779;DHT22;30234;48.090;11.464;2023-03-23T06:14:19;9.80;99.90
27779;DHT22;30234;48.090;11.464;2023-03-23T06:18:20;9.90;99.90
27779;DHT22;30234;48.090;11.464;2023-03-23T06:22:22;10.00;99.90
27779;DHT22;30234;48.090;11.464;2023-03-23T06:26:27;10.00;99.90
27779;DHT22;30234;48.090;11.464;2023-03-23T06:30:31;10.10;99.90
27779;DHT22;30234;48.090;11.464;2023-03-23T06:34:33;10.20;99.90
27779;DHT22;30234;48.090;11.464;2023-03-23T06:38:33;10.20;99.90
27779;DHT22;30234;48.090;11.464;2023-03-23T06:42:34;10.30;99.90
27779;DHT22;30234;48.090;11.464;2023-03-23T06:46:35;10.30;99.90
27779;DHT22;30234;48.090;11.464;2023-03-23T06:50:36;10.40;99.90
27779;DHT22;30234;48.090;11.464;2023-03-23T06:54:37;10.60;99.90
27779;DHT22;30234;48.090;11.464;2023-03-23T06:58:38;10.70;99.90
27779;DHT22;30234;48.090;11.464;2023-03-23T07:02:40;10.80;99.90
27779;DHT22;30234;48.090;11.464;2023-03-23T07:06:41;11.00;99.90
27779;DHT22;30234;48.090;11.464;2023-03-23T07:10:42;11.40;99.90
27779;DHT22;30234;48.090;11.464;2023-03-23T07:14:43;11.60;99.90
27779;DHT22;30234;48.090;11.464;2023-03-23T07:18:44;11.80;99.90
27779;DHT22;30234;48.090;11.464;2023-03-23T07:22:45;12.10;99.90
27779;DHT22;30234;48.090;11.464;2023-03-23T07:26:46;12.90;99.90
27779;DHT22;30234;48.090;11.464;2023-03-23T07:30:47;14.10;99.90
27779;DHT22;30234;48.090;11.464;2023-03-23T07:34:48;15.20;99.90
27779;DHT22;30234;48.090;11.464;2023-03-23T07:38:48;16.40;99.90
27779;DHT22;30234;48.090;11.464;2023-03-23T07:42:55;18.20;99.90
27779;DHT22;30234;48.090;11.464;2023-03-23T07:46:56;18.40;96.80
27779;DHT22;30234;48.090;11.464;2023-03-23T07:50:58;17.50;97.40
27779;DHT22;30234;48.090;11.464;2023-03-23T07:55:00;17.50;96.50
27779;DHT22;30234;48.090;11.464;2023-03-23T07:59:04;17.40;96.30
27779;DHT22;30234;48.090;11.464;2023-03-23T08:03:07;17.40;96.60
27779;DHT22;30234;48.090;11.464;2023-03-23T08:07:08;17.60;95.80
27779;DHT22;30234;48.090;11.464;2023-03-23T08:11:12;16.80;95.90
27779;DHT22;30234;48.090;11.464;2023-03-23T08:15:15;16.10;96.40
27779;DHT22;30234;48.090;11.464;2023-03-23T08:19:16;15.70;96.80
27779;DHT22;30234;48.090;11.464;2023-03-23T08:23:17;15.50;97.50
27779;DHT22;30234;48.090;11.464;2023-03-23T08:27:18;15.50;97.20
27779;DHT22;30234;48.090;11.464;2023-03-23T08:31:19;15.50;97.10
27779;DHT22;30234;48.090;11.464;2023-03-23T08:35:20;15.50;97.40
27779;DHT22;30234;48.090;11.464;2023-03-23T08:39:20;15.60;97.80
27779;DHT22;30234;48.090;11.464;2023-03-23T08:43:23;15.90;97.30
27779;DHT22;30234;48.090;11.464;2023-03-23T08:47:24;16.20;96.80
27779;DHT22;30234;48.090;11.464;2023-03-23T08:51:26;16.80;95.80
27779;DHT22;30234;48.090;11.464;2023-03-23T08:55:28;17.00;94.80
27779;DHT22;30234;48.090;11.464;2023-03-23T08:59:29;17.10;94.40
27779;DHT22;30234;48.090;11.464;2023-03-23T09:03:30;18.00;93.60
27779;DHT22;30234;48.090;11.464;2023-03-23T09:07:31;19.00;91.90
27779;DHT22;30234;48.090;11.464;2023-03-23T09:11:34;20.10;89.40
27779;DHT22;30234;48.090;11.464;2023-03-23T09:15:35;21.30;82.80
27779;DHT22;30234;48.090;11.464;2023-03-23T09:19:37;21.10;81.90
27779;DHT22;30234;48.090;11.464;2023-03-23T09:23:37;21.00;80.40
27779;DHT22;30234;48.090;11.464;2023-03-23T09:27:40;20.00;80.70
27779;DHT22;30234;48.090;11.464;2023-03-23T09:31:42;19.80;82.50
27779;DHT22;30234;48.090;11.464;2023-03-23T09:35:43;19.60;82.80
27779;DHT22;30234;48.090;11.464;2023-03-23T09:39:44;19.10;84.60
27779;DHT22;30234;48.090;11.464;2023-03-23T09:48:49;17.80;89.30
27779;DHT22;30234;48.090;11.464;2023-03-23T09:52:58;17.20;90.30
27779;DHT22;30234;48.090;11.464;2023-03-23T09:57:02;18.10;90.20
27779;DHT22;30234;48.090;11.464;2023-03-23T10:01:19;19.50;85.20
27779;DHT22;30234;48.090;11.464;2023-03-23T10:05:30;20.00;82.90
27779;DHT22;30234;48.090;11.464;2023-03-23T10:09:35;20.00;80.90
27779;DHT22;30234;48.090;11.464;2023-03-23T10:14:06;20.10;79.00
27779;DHT22;30234;48.090;11.464;2023-03-23T10:18:38;19.50;78.30
27779;DHT22;30234;48.090;11.464;2023-03-23T10:22:58;19.10;79.40
27779;DHT22;30234;48.090;11.464;2023-03-23T10:31:31;19.40;78.80
27779;DHT22;30234;48.090;11.464;2023-03-23T10:35:44;19.40;78.10
27779;DHT22;30234;48.090;11.464;2023-03-23T10:39:55;19.80;76.80
27779;DHT22;30234;48.090;11.464;2023-03-23T10:43:57;19.70;75.70
27779;DHT22;30234;48.090;11.464;2023-03-23T10:48:12;20.00;75.00
27779;DHT22;30234;48.090;11.464;2023-03-23T10:52:42;20.70;72.50
27779;DHT22;30234;48.090;11.464;2023-03-23T10:56:44;20.80;71.40
27779;DHT22;30234;48.090;11.464;2023-03-23T11:00:47;20.60;70.70
27779;DHT22;30234;48.090;11.464;2023-03-23T11:04:57;19.90;70.70
27779;DHT22;30234;48.090;11.464;2023-03-23T11:09:09;19.70;70.80
27779;DHT22;30234;48.090;11.464;2023-03-23T11:13:14;19.80;70.30
27779;DHT22;30234;48.090;11.464;2023-03-23T11:17:24;19.50;70.30
27779;DHT22;30234;48.090;11.464;2023-03-23T11:21:27;19.20;71.80
27779;DHT22;30234;48.090;11.464;2023-03-23T11:25:28;19.30;72.70
27779;DHT22;30234;48.090;11.464;2023-03-23T11:29:30;19.30;71.90
27779;DHT22;30234;48.090;11.464;2023-03-23T11:33:46;19.60;71.30
27779;DHT22;30234;48.090;11.464;2023-03-23T11:37:56;20.20;70.90
27779;DHT22;30234;48.090;11.464;2023-03-23T11:42:12;20.90;68.40
27779;DHT22;30234;48.090;11.464;2023-03-23T11:46:34;21.40;66.80
27779;DHT22;30234;48.090;11.464;2023-03-23T11:50:55;21.10;67.50
27779;DHT22;30234;48.090;11.464;2023-03-23T11:55:07;22.00;65.40
27779;DHT22;30234;48.090;11.464;2023-03-23T11:59:32;22.60;64.70
27779;DHT22;30234;48.090;11.464;2023-03-23T12:08:17;22.30;63.20
27779;DHT22;30234;48.090;11.464;2023-03-23T12:21:31;24.40;57.80
27779;DHT22;30234;48.090;11.464;2023-03-23T12:25:58;23.40;56.20
27779;DHT22;30234;48.090;11.464;2023-03-23T12:34:34;21.70;58.70
27779;DHT22;30234;48.090;11.464;2023-03-23T12:38:51;21.30;59.30
27779;DHT22;30234;48.090;11.464;2023-03-23T12:43:18;20.80;60.70
27779;DHT22;30234;48.090;11.464;2023-03-23T12:47:46;20.60;61.80
27779;DHT22;30234;48.090;11.464;2023-03-23T12:56:32;20.90;60.00
27779;DHT22;30234;48.090;11.464;2023-03-23T13:05:28;20.30;59.10
27779;DHT22;30234;48.090;11.464;2023-03-23T13:14:48;19.60;60.70
27779;DHT22;30234;48.090;11.464;2023-03-23T13:27:44;19.40;63.10
27779;DHT22;30234;48.090;11.464;2023-03-23T13:32:11;19.80;61.90
27779;DHT22;30234;48.090;11.464;2023-03-23T13:36:37;20.40;61.80
27779;DHT22;30234;48.090;11.464;2023-03-23T13:40:42;20.90;60.50
27779;DHT22;30234;48.090;11.464;2023-03-23T13:45:18;20.90;59.90
27779;DHT22;30234;48.090;11.464;2023-03-23T13:49:24;20.10;61.10
27779;DHT22;30234;48.090;11.464;2023-03-23T13:53:45;19.70;62.20
27779;DHT22;30234;48.090;11.464;2023-03-23T13:58:09;19.40;63.10
27779;DHT22;30234;48.090;11.464;2023-03-23T14:02:31;19.60;63.40
27779;DHT22;30234;48.090;11.464;2023-03-23T14:06:40;19.80;65.00
27779;DHT22;30234;48.090;11.464;2023-03-23T14:10:42;19.60;67.50
27779;DHT22;30234;48.090;11.464;2023-03-23T14:14:48;19.40;66.00
27779;DHT22;30234;48.090;11.464;2023-03-23T14:18:59;19.40;66.60
27779;DHT22;30234;48.090;11.464;2023-03-23T14:23:01;19.20;66.70
27779;DHT22;30234;48.090;11.464;2023-03-23T14:27:10;19.40;67.20
27779;DHT22;30234;48.090;11.464;2023-03-23T14:31:27;19.30;67.10
27779;DHT22;30234;48.090;11.464;2023-03-23T14:35:34;18.90;67.40
27779;DHT22;30234;48.090;11.464;2023-03-23T14:39:36;18.90;67.90
27779;DHT22;30234;48.090;11.464;2023-03-23T14:43:37;18.90;68.30
27779;DHT22;30234;48.090;11.464;2023-03-23T14:47:42;19.00;68.70
27779;DHT22;30234;48.090;11.464;2023-03-23T14:51:50;18.90;68.90
27779;DHT22;30234;48.090;11.464;2023-03-23T14:55:54;18.90;69.00
27779;DHT22;30234;48.090;11.464;2023-03-23T14:59:56;18.50;70.00
27779;DHT22;30234;48.090;11.464;2023-03-23T15:04:20;18.40;75.50
27779;DHT22;30234;48.090;11.464;2023-03-23T15:08:26;18.10;74.90
27779;DHT22;30234;48.090;11.464;2023-03-23T15:12:32;17.80;75.00
27779;DHT22;30234;48.090;11.464;2023-03-23T15:16:35;17.80;74.80
27779;DHT22;30234;48.090;11.464;2023-03-23T15:24:46;17.80;74.20
27779;DHT22;30234;48.090;11.464;2023-03-23T15:28:49;17.70;75.00
27779;DHT22;30234;48.090;11.464;2023-03-23T15:32:55;17.40;75.60
27779;DHT22;30234;48.090;11.464;2023-03-23T15:37:03;17.30;76.00
27779;DHT22;30234;48.090;11.464;2023-03-23T15:41:06;17.30;76.00
27779;DHT22;30234;48.090;11.464;2023-03-23T15:45:25;17.00;79.20
27779;DHT22;30234;48.090;11.464;2023-03-23T15:49:27;16.90;80.00
27779;DHT22;30234;48.090;11.464;2023-03-23T15:53:36;17.00;79.90
27779;DHT22;30234;48.090;11.464;2023-03-23T15:57:40;17.00;79.40
27779;DHT22;30234;48.090;11.464;2023-03-23T16:01:41;17.00;79.30
27779;DHT22;30234;48.090;11.464;2023-03-23T16:05:43;16.90;79.20
27779;DHT22;30234;48.090;11.464;2023-03-23T16:09:44;16.60;80.60
27779;DHT22;30234;48.090;11.464;2023-03-23T16:13:45;16.50;81.60
27779;DHT22;30234;48.090;11.464;2023-03-23T16:17:46;16.40;82.40
27779;DHT22;30234;48.090;11.464;2023-03-23T16:21:47;16.40;83.40
27779;DHT22;30234;48.090;11.464;2023-03-23T16:25:48;16.30;85.20
27779;DHT22;30234;48.090;11.464;2023-03-23T16:29:49;16.30;87.50
27779;DHT22;30234;48.090;11.464;2023-03-23T16:33:50;16.00;87.80
27779;DHT22;30234;48.090;11.464;2023-03-23T16:37:54;15.70;91.10
27779;DHT22;30234;48.090;11.464;2023-03-23T16:41:55;15.60;92.70
27779;DHT22;30234;48.090;11.464;2023-03-23T16:45:57;15.50;94.00
27779;DHT22;30234;48.090;11.464;2023-03-23T16:49:58;15.30;96.10
27779;DHT22;30234;48.090;11.464;2023-03-23T16:53:59;15.10;97.10
27779;DHT22;30234;48.090;11.464;2023-03-23T16:58:00;15.10;98.50
27779;DHT22;30234;48.090;11.464;2023-03-23T17:02:01;15.10;98.70
27779;DHT22;30234;48.090;11.464;2023-03-23T17:06:03;15.00;99.90
27779;DHT22;30234;48.090;11.464;2023-03-23T17:10:06;14.80;99.90
27779;DHT22;30234;48.090;11.464;2023-03-23T17:14:08;14.70;99.90
27779;DHT22;30234;48.090;11.464;2023-03-23T17:18:09;14.50;99.90
27779;DHT22;30234;48.090;11.464;2023-03-23T17:22:10;14.50;99.90
27779;DHT22;30234;48.090;11.464;2023-03-23T17:26:11;14.40;99.90
27779;DHT22;30234;48.090;11.464;2023-03-23T17:30:12;14.30;99.90
27779;DHT22;30234;48.090;11.464;2023-03-23T17:34:13;14.10;99.90
27779;DHT22;30234;48.090;11.464;2023-03-23T17:38:15;14.00;99.90
27779;DHT22;30234;48.090;11.464;2023-03-23T17:42:17;13.80;99.90
27779;DHT22;30234;48.090;11.464;2023-03-23T17:46:18;13.70;99.90
27779;DHT22;30234;48.090;11.464;2023-03-23T17:50:19;13.60;99.90
27779;DHT22;30234;48.090;11.464;2023-03-23T17:54:19;13.60;99.90
27779;DHT22;30234;48.090;11.464;2023-03-23T17:58:22;13.70;99.90
27779;DHT22;30234;48.090;11.464;2023-03-23T18:02:24;13.70;99.90
27779;DHT22;30234;48.090;11.464;2023-03-23T18:06:25;14.50;99.90
27779;DHT22;30234;48.090;11.464;2023-03-23T18:10:26;13.60;99.90
27779;DHT22;30234;48.090;11.464;2023-03-23T18:14:27;13.60;99.90
27779;DHT22;30234;48.090;11.464;2023-03-23T18:18:29;13.50;99.90
27779;DHT22;30234;48.090;11.464;2023-03-23T18:22:30;13.50;99.90
27779;DHT22;30234;48.090;11.464;2023-03-23T18:26:31;13.50;99.90
27779;DHT22;30234;48.090;11.464;2023-03-23T18:30:33;13.50;99.90
27779;DHT22;30234;48.090;11.464;2023-03-23T18:34:34;13.50;99.90
27779;DHT22;30234;48.090;11.464;2023-03-23T18:38:37;13.60;99.90
27779;DHT22;30234;48.090;11.464;2023-03-23T18:42:41;13.50;99.90
27779;DHT22;30234;48.090;11.464;2023-03-23T18:46:44;13.50;99.90
27779;DHT22;30234;48.090;11.464;2023-03-23T18:50:47;13.40;99.90
27779;DHT22;30234;48.090;11.464;2023-03-23T18:54:48;13.40;99.90
27779;DHT22;30234;48.090;11.464;2023-03-23T18:58:51;13.40;99.90
27779;DHT22;30234;48.090;11.464;2023-03-23T19:02:52;13.40;99.90
27779;DHT22;30234;48.090;11.464;2023-03-23T19:06:54;13.30;99.90
27779;DHT22;30234;48.090;11.464;2023-03-23T19:11:00;13.30;99.90
27779;DHT22;30234;48.090;11.464;2023-03-23T19:15:02;13.40;99.90
27779;DHT22;30234;48.090;11.464;2023-03-23T19:19:05;13.30;99.90
27779;DHT22;30234;48.090;11.464;2023-03-23T19:23:07;13.20;99.90
27779;DHT22;30234;48.090;11.464;2023-03-23T19:27:09;13.20;99.90
27779;DHT22;30234;48.090;11.464;2023-03-23T19:31:10;13.10;99.90
27779;DHT22;30234;48.090;11.464;2023-03-23T19:35:15;13.00;99.90
27779;DHT22;30234;48.090;11.464;2023-03-23T19:39:16;12.90;99.90
27779;DHT22;30234;48.090;11.464;2023-03-23T19:43:17;12.80;99.90
27779;DHT22;30234;48.090;11.464;2023-03-23T19:47:18;12.80;99.90
27779;DHT22;30234;48.090;11.464;2023-03-23T19:51:20;12.70;99.90
27779;DHT22;30234;48.090;11.464;2023-03-23T19:55:22;12.70;99.90
27779;DHT22;30234;48.090;11.464;2023-03-23T19:59:23;12.70;99.90
27779;DHT22;30234;48.090;11.464;2023-03-23T20:03:24;12.70;99.90
27779;DHT22;30234;48.090;11.464;2023-03-23T20:07:25;12.70;99.90
27779;DHT22;30234;48.090;11.464;2023-03-23T20:11:28;12.70;99.90
27779;DHT22;30234;48.090;11.464;2023-03-23T20:15:30;12.70;99.90
27779;DHT22;30234;48.090;11.464;2023-03-23T20:19:32;12.70;99.90
27779;DHT22;30234;48.090;11.464;2023-03-23T20:23:34;12.60;99.90
27779;DHT22;30234;48.090;11.464;2023-03-23T20:27:35;12.60;99.90
27779;DHT22;30234;48.090;11.464;2023-03-23T20:31:39;12.50;99.90
27779;DHT22;30234;48.090;11.464;2023-03-23T20:35:40;12.50;99.90
27779;DHT22;30234;48.090;11.464;2023-03-23T20:39:41;12.40;99.90
27779;DHT22;30234;48.090;11.464;2023-03-23T20:43:45;12.30;99.90
27779;DHT22;30234;48.090;11.464;2023-03-23T20:47:46;12.30;99.90
27779;DHT22;30234;48.090;11.464;2023-03-23T20:51:47;12.30;99.90
27779;DHT22;30234;48.090;11.464;2023-03-23T20:55:49;12.30;99.90
27779;DHT22;30234;48.090;11.464;2023-03-23T20:59:51;12.40;99.90
27779;DHT22;30234;48.090;11.464;2023-03-23T21:03:52;12.40;99.90
27779;DHT22;30234;48.090;11.464;2023-03-23T21:07:56;12.30;99.90
27779;DHT22;30234;48.090;11.464;2023-03-23T21:11:57;12.30;99.90
27779;DHT22;30234;48.090;11.464;2023-03-23T21:16:02;12.10;99.90
27779;DHT22;30234;48.090;11.464;2023-03-23T21:20:04;11.90;99.90
27779;DHT22;30234;48.090;11.464;2023-03-23T21:24:08;11.80;99.90
27779;DHT22;30234;48.090;11.464;2023-03-23T21:28:11;11.90;99.90
27779;DHT22;30234;48.090;11.464;2023-03-23T21:32:12;12.00;99.90
27779;DHT22;30234;48.090;11.464;2023-03-23T21:36:13;12.00;99.90
27779;DHT22;30234;48.090;11.464;2023-03-23T21:40:16;12.00;99.90
27779;DHT22;30234;48.090;11.464;2023-03-23T21:44:17;12.00;99.90
27779;DHT22;30234;48.090;11.464;2023-03-23T21:48:18;12.00;99.90
27779;DHT22;30234;48.090;11.464;2023-03-23T21:52:22;11.90;99.90
27779;DHT22;30234;48.090;11.464;2023-03-23T21:56:25;11.90;99.90
27779;DHT22;30234;48.090;11.464;2023-03-23T22:00:27;11.90;99.90
27779;DHT22;30234;48.090;11.464;2023-03-23T22:04:29;11.80;99.90
27779;DHT22;30234;48.090;11.464;2023-03-23T22:08:49;11.70;99.90
27779;DHT22;30234;48.090;11.464;2023-03-23T22:12:50;11.40;99.90
27779;DHT22;30234;48.090;11.464;2023-03-23T22:16:52;11.30;99.90
27779;DHT22;30234;48.090;11.464;2023-03-23T22:20:53;11.10;99.90
27779;DHT22;30234;48.090;11.464;2023-03-23T22:24:53;11.00;99.90
27779;DHT22;30234;48.090;11.464;2023-03-23T22:28:55;10.90;99.90
27779;DHT22;30234;48.090;11.464;2023-03-23T22:32:56;11.00;99.90
27779;DHT22;30234;48.090;11.464;2023-03-23T22:36:57;11.00;99.90
27779;DHT22;30234;48.090;11.464;2023-03-23T22:40:59;11.20;99.90
27779;DHT22;30234;48.090;11.464;2023-03-23T22:45:04;11.30;99.90
27779;DHT22;30234;48.090;11.464;2023-03-23T22:49:08;11.30;99.90
27779;DHT22;30234;48.090;11.464;2023-03-23T22:53:10;11.30;99.90
27779;DHT22;30234;48.090;11.464;2023-03-23T22:57:11;11.30;99.90
27779;DHT22;30234;48.090;11.464;2023-03-23T23:01:15;11.20;99.90
27779;DHT22;30234;48.090;11.464;2023-03-23T23:05:17;11.20;99.90
27779;DHT22;30234;48.090;11.464;2023-03-23T23:09:18;11.20;99.90
27779;DHT22;30234;48.090;11.464;2023-03-23T23:13:19;11.20;99.90
27779;DHT22;30234;48.090;11.464;2023-03-23T23:17:20;11.10;99.90
27779;DHT22;30234;48.090;11.464;2023-03-23T23:21:23;11.10;99.90
27779;DHT22;30234;48.090;11.464;2023-03-23T23:25:27;11.00;99.90
27779;DHT22;30234;48.090;11.464;2023-03-23T23:29:28;11.00;99.90
27779;DHT22;30234;48.090;11.464;2023-03-23T23:33:29;11.00;99.90
27779;DHT22;30234;48.090;11.464;2023-03-23T23:37:30;10.90;99.90
27779;DHT22;30234;48.090;11.464;2023-03-23T23:41:31;10.90;99.90
27779;DHT22;30234;48.090;11.464;2023-03-23T23:45:36;11.10;99.90
27779;DHT22;30234;48.090;11.464;2023-03-23T23:49:37;11.10;99.90
27779;DHT22;30234;48.090;11.464;2023-03-23T23:53:40;11.20;99.90
27779;DHT22;30234;48.090;11.464;2023-03-23T23:57:44;11.20;99.90
